Vue régionale

METAR et TAF

Lundi 22 octobre 2018 à 18h45

Visibilités horizontales observées à différents aéroports. Les observations (METAR) et prévisions aéronautiques (TAF) complètes sont disponibles en cliquant sur l’icône correspondante.

  • Luxemburg (ELLX)

    Taf: TAF ELLX 221100Z 2212/2318 04008KT 9999 BKN035 BECMG 2212/2214 BKN015 TEMPO 2214/2216 3500 DZRA BKN005 BECMG 2217/2219 SCT020 TEMPO 2222/2308 2000 BR BECMG 2308/2310 BKN020=

    Metar: METAR COR ELLX 221620Z 01014KT 340V040 9999 FEW017 BKN024 11/08 Q1031 NOSIG=

  • Spangdahlem (ETAD)

    Taf: TAF AMD ETAD 221553Z 2215/2318 01012KT 9999 BKN015 QNH3039INS TEMPO 2215/2217 BKN020 BECMG 2217/2218 VRB06KT 9999 SCT020 QNH3038INS BECMG 2307/2308 28012G20KT 9999 SCT070 BKN100 QNH3026INS TX17/2314Z TN03/2305Z=

    Metar: METAR ETAD NIL=

  • Metz/Nancy (LFJL)

    Taf: TAF LFJL 221100Z 2212/2312 03008KT CAVOK PROB40 TEMPO 2214/2218 36010G20KT FEW014 BKN023 TEMPO 2221/2306 VRB02KT BECMG 2306/2309 26010G20KT=

    Metar: METAR LFJL 221630Z AUTO 36013KT 9999 OVC038 14/08 Q1030 NOSIG=

  • Saarbrücken/Intl (EDDR)

    Taf: TAF EDDR 221100Z 2212/2312 04008KT 9999 SCT030 PROB30 TEMPO 2216/2219 BKN009 BECMG 2223/2301 33003KT PROB30 TEMPO 2304/2308 1500 BCFG BECMG 2308/2310 25010KT=

    Metar: METAR EDDR 221620Z 02007KT 350V060 9999 FEW013 BKN028 13/07 Q1030 NOSIG=

  • Hahn (EDFH)

    Taf: TAF EDFH 221100Z 2212/2312 01007KT 9999 BKN025 TEMPO 2213/2217 3000 -DZ BR OVC004 BECMG 2222/2224 31004KT BECMG 2304/2306 25006KT BECMG 2308/2310 26015G25KT=

    Metar: METAR EDFH 221620Z 35009KT 9999 BKN008 09/08 Q1031=

  • Ramstein (ETAR)

    Taf: TAF ETAR 221004Z 2210/2316 VRB06KT 9999 SKC QNH3034INS BECMG 2211/2212 VRB06KT 9999 BKN030 QNH3035INS BECMG 2214/2215 02009KT 9999 SCT015 BKN020 QNH3037INS TEMPO 2215/2218 02010G15KT BKN015 BECMG 2223/2224 VRB06KT 9999 SCT020 QNH3042INS BECMG 2308/2309 26010G15KT 9999 FEW020 QNH3034INS BECMG 2312/2313 27025G30KT 9999 FEW020 SCT120 510003 QNH3027INS TX16/2212Z TN02/2306Z=

    Metar: METAR ETAR 221556Z 32006KT 9999 BKN028 13/12 A3041 RMK AO2A BKN V SCT CIG 027 RWY26 SLP308 T01250123 $=

  • Nancy/Ochey (LFSO)

    Taf: TAF AMD LFSO 221514Z 2215/2315 CNL=

    Metar: METAR LFSO 221630Z AUTO 01011KT CAVOK 14/07 Q1029=

  • Liège Bierset (EBLG)

    Taf: TAF EBLG 221120Z 2212/2318 02009KT 9999 BKN025 BECMG 2309/2311 SCT008 BKN012 PROB30 TEMPO 2316/2318 BKN008=

    Metar: METAR EBLG 221620Z 02004KT 360V080 9999 SCT040 12/07 Q1033 NOSIG=

  • Saint-Dizier (LFSI)

    Taf: TAF LFSI 221400Z 2215/2315 02003KT CAVOK TEMPO 2223/2307 3000 BR BKN005 PROB40 TEMPO 2300/2307 0500 FG VV///=

    Metar: METAR LFSI 221630Z AUTO 36011KT 9999 SCT042 15/08 Q1030=

  • Maastricht/Zuid Limburg (EHBK)

    Taf: TAF EHBK 221121Z 2212/2318 02012KT 9999 SCT030 BECMG 2217/2220 34005KT BECMG 2304/2307 23014KT BECMG 2309/2312 26015G25KT BECMG 2316/2318 27012KT=

    Metar: METAR EHBK 221625Z AUTO 34004KT 310V010 9999 SCT042 12/05 Q1032 NOSIG=

  • Köln/Köln-Bonn (EDDK)

    Taf: TAF EDDK 221100Z 2212/2318 35007KT 9999 BKN040 TEMPO 2212/2214 BKN012 PROB30 TEMPO 2212/2214 2500 DZ BKN007 BECMG 2218/2220 VRB03KT BECMG 2305/2308 27010KT TEMPO 2310/2316 28015G25KT=

    Metar: METAR EDDK 221620Z 01002KT 9999 FEW032 SCT035 BKN047 13/07 Q1032 NOSIG=

  • Charleroi (EBCI)

    Taf: TAF EBCI 221120Z 2212/2318 02009KT 9999 SCT025 BKN030 BECMG 2312/2314 SCT008 BKN012 PROB30 TEMPO 2316/2318 BKN008=

    Metar: METAR EBCI 221620Z 35006KT 9999 SCT035 12/05 Q1033 NOSIG=

  • Wiesbaden (ETOU)

    Taf: TAF AMD ETOU 221509Z 2215/2317 02009KT 9999 FEW005 SCT015 BKN020 QNH3039INS TEMPO 2215/2217 BKN015 BECMG 2219/2220 02009KT 9999 BKN020 QNH3048INS BECMG 2223/2224 VRB06KT 9999 SCT020 QNH3038INS BECMG 2308/2309 26010G15KT 9999 FEW020 QNH3032INS BECMG 2311/2312 26020G25KT 9999 FEW020 SCT120 510003 QNH3022INS TX17/2313Z TN01/2306Z=

    Metar: METAR ETOU 221556Z AUTO 35006KT 9999 OVC025 12/07 A3045 RMK AO2 OVC V BKN CIG 024 RWY25 SLP317 T01240067 $=

  • Karlsruhe/Baden-Baden (EDSB)

    Taf: TAF EDSB 221100Z 2212/2312 02010KT CAVOK PROB30 TEMPO 2218/2221 BKN012 BECMG 2219/2221 02005KT BECMG 2304/2306 22004KT BECMG 2309/2311 23009KT=

    Metar: METAR EDSB 221620Z 02007KT CAVOK 15/04 Q1029=

  • Chalons/Vatry (LFOK)

    Taf: TAF AMD LFOK 221429Z 2214/2312 01016KT 9999 BKN020 BECMG 2220/2223 01006KT 3000 BR TEMPO 2300/2307 0600 BCFG VV/// BECMG 2307/2309 27010KT 9999 NSW=

    Metar: METAR LFOK 221630Z AUTO 02018KT 9999 FEW021 12/08 Q1031 NOSIG=

  • Brüssel (EBBR)

    Taf: TAF EBBR 221120Z 2212/2318 02010KT 9999 FEW025 BKN035 BECMG 2222/2224 24006KT BECMG 2308/2310 SCT008 BKN012 PROB30 TEMPO 2314/2317 BKN008=

    Metar: METAR EBBR 221620Z 36007KT 320V020 9999 FEW041 13/06 Q1034 NOSIG=

  • Düsseldorf (EDDL)

    Taf: TAF EDDL 221100Z 2212/2318 35008KT 9999 SCT030 BECMG 2218/2220 VRB03KT BECMG 2301/2303 23010KT BECMG 2307/2309 25015G25KT BECMG 2314/2316 26010KT=

    Metar: METAR EDDL 221620Z 35008KT 310V010 CAVOK 13/05 Q1032 NOSIG=

  • Luxeuil (LFSX)

    Taf: TAF AMD LFSX 221510Z 2215/2315 CNL=

    Metar: METAR LFSX 221630Z AUTO 02009KT 340V050 CAVOK 16/01 Q1027=

  • Eindhoven (EHEH)

    Taf: TAF EHEH 221148Z 2212/2318 02010G20KT 9999 SCT040 BECMG 2216/2218 35006KT BECMG 2220/2223 24005KT PROB30 2223/2303 4500 BR BECMG 2303/2306 24012KT TEMPO 2307/2310 SCT008 BKN014 BECMG 2309/2311 29015G25KT=

    Metar: METAR EHEH 221625Z AUTO 36008KT 300V060 9999 NCD 12/06 Q1033 BLU 35008KT 9999 SCT045 BECMG 27005KT=

  • Niederrhein (EDLV)

    Taf: TAF EDLV 221100Z 2212/2312 35005KT 9999 SCT040 BECMG 2218/2221 26004KT BECMG 2302/2304 24010KT BECMG 2307/2309 26015G25KT=

    Metar: METAR EDLV 221620Z VRB03KT CAVOK 14/04 Q1033=

  • Dortmund/Wickede (EDLW)

    Taf: TAF EDLW 221100Z 2212/2312 35006KT 9999 SCT030 BECMG 2219/2221 25005KT BECMG 2302/2304 24010KT BECMG 2305/2307 24015G25KT PROB30 TEMPO 2310/2312 BKN012=

    Metar: METAR EDLW 221620Z 35005KT 9999 SCT049 11/05 Q1032=

  • Stuttgart/Echterdingen (EDDS)

    Taf: TAF EDDS 221100Z 2212/2312 03006KT CAVOK BECMG 2220/2222 33004KT PROB30 TEMPO 2221/2302 BKN010 BECMG 2307/2309 25008KT=

    Metar: METAR EDDS 221620Z 36002KT CAVOK 13/02 Q1028 NOSIG=

  • Basel-Mühlhausen (LFSB)

    Taf: TAF LFSB 221100Z 2212/2312 35008KT CAVOK BECMG 2222/2224 4000 BR OVC006 PROB40 TEMPO 2302/2307 1200 BCFG OVC001 BECMG 2309/2311 CAVOK=

    Metar: METAR LFSB 221630Z 35006KT 320V020 CAVOK 13/04 Q1028 NOSIG=

  • Lille (LFQQ)

    Taf: TAF LFQQ 221100Z 2212/2318 01010KT 9999 BKN030 BECMG 2222/2224 27004KT BECMG 2305/2308 27014KT=

    Metar: METAR LFQQ 221630Z AUTO 35010KT CAVOK 13/05 Q1034 NOSIG=

  • Paris/Charles de Gaulle (LFPG)

    Taf: TAF LFPG 221100Z 2212/2318 02010KT 9999 BKN010 TX16/2314Z TN04/2306Z TEMPO 2212/2215 02010G25KT BECMG 2213/2215 SCT013 BKN016 BECMG 2216/2218 CAVOK BECMG 2306/2308 25005KT=

    Metar: METAR LFPG 221630Z 01012KT 9999 FEW035 13/07 Q1033 NOSIG=

  • Paderborn/Lippstadt (EDLP)

    Taf: TAF AMD EDLP 221356Z 2213/2312 29006KT 9999 SCT030 TEMPO 2213/2218 VRB03KT BECMG 2218/2220 23005KT BECMG 2301/2303 24010KT BECMG 2305/2307 25015G25KT PROB30 TEMPO 2310/2312 BKN012=

    Metar: METAR EDLP 221620Z 31003KT 270V360 9999 SCT045 ///// Q1031=

  • Paris/Le Bourget (LFPB)

    Taf: TAF LFPB 221100Z 2212/2312 01010KT 9999 BKN010 BECMG 2213/2215 SCT013 BKN016 BECMG 2216/2218 CAVOK BECMG 2306/2308 25005KT=

    Metar: METAR LFPB 221630Z AUTO 36007KT 330V030 CAVOK 14/06 Q1033 NOSIG=

  • Rotterdam (EHRD)

    Taf: TAF EHRD 221116Z 2212/2318 35010KT 9999 SCT040 BECMG 2214/2217 32005KT BECMG 2221/2224 27010KT BECMG 2304/2307 28016G26KT=

    Metar: METAR EHRD 221625Z AUTO 34005KT 320V020 9999 NCD 10/05 Q1034 NOSIG=

  • Zürich/Kloten (LSZH)

    Taf: TAF LSZH 221425Z 2215/2321 06007KT CAVOK TX13/2215Z TN03/2304Z TX14/2314Z BECMG 2217/2220 VRB03KT TEMPO 2223/2303 9999 SCT070 PROB40 TEMPO 2305/2309 6000 SCT012 BECMG 2310/2313 24010KT BECMG 2319/2321 9999 SCT060=

    Metar: METAR LSZH 221620Z 08003KT CAVOK 13/03 Q1028 NOSIG=

  • Oostende/Intl (EBOS)

    Taf: TAF EBOS 221120Z 2212/2318 02012KT 9999 FEW025 BKN035 BECMG 2223/2301 28012KT BECMG 2308/2310 SCT008 BKN012 PROB40 TEMPO 2311/2315 BKN008=

    Metar: METAR EBOS 221620Z 01011KT 340V040 9999 BKN037 13/04 Q1035 NOSIG=

  • Paris/Orly (LFPO)

    Taf: TAF LFPO 221100Z 2212/2318 02010KT 9999 OVC009 BECMG 2212/2215 BKN020 TEMPO 2212/2217 02010G20KT BECMG 2217/2220 CAVOK BECMG 2220/2223 36003KT PROB30 TEMPO 2304/2307 4000 BR BECMG 2307/2309 27005KT=

    Metar: METAR LFPO 221630Z 02011KT 320V040 9999 BKN035 14/08 Q1033 NOSIG=

  • Beauvais (LFOB)

    Taf: TAF LFOB 221100Z 2212/2312 01012KT 9999 BKN025 BECMG 2222/2224 VRB02KT PROB40 2300/2307 3000 BR BECMG 2307/2310 27012KT=

    Metar: METAR LFOB 221630Z AUTO 01006KT 9999 FEW036 12/06 Q1034 NOSIG=

  • Münster/Intl (EDDG)

    Taf: TAF EDDG 221100Z 2212/2312 35008KT 9999 SCT030 BECMG 2218/2221 25003KT BECMG 2300/2302 24010KT BECMG 2306/2308 26015G25KT TEMPO 2309/2312 BKN010=

    Metar: METAR EDDG 221620Z 36009KT 320V030 9999 BKN049 12/04 Q1032 NOSIG=

  • Illesheim (ETIK)

    Taf: TAF ETIK 221306Z 2213/2319 35009KT 9999 SCT020 BKN080 QNH3030INS BECMG 2215/2216 35009KT 8000 -SHRA BKN020 QNH3034INS BECMG 2220/2221 VRB06KT 9999 NSW BKN009 QNH3029INS BECMG 2310/2311 26010G15KT 8000 -SHRA SCT009 BKN025 QNH3026INS TEMPO 2313/2319 25015G25KT 510003 TX15/2214Z TN02/2306Z=

    Metar: METAR ETIK 221556Z AUTO 36006KT 9999 M 13/06 A3038 RMK AO2 RAB30E39 SLP301 T01310055 $=

  • Duebendorf (LSMD)

    Taf: TAF LSMD 221625Z 2217/2323 VRB05KT CAVOK TEMPO 2223/2303 9999 SCT070 PROB40 TEMPO 2305/2309 6000 SCT012 BECMG 2319/2321 9999 SCT060=

    Metar: METAR LSMD 221620Z AUTO 15003KT 9999NDV NCD 12/03 Q1028 RMK=

  • Villacoublay (LFPV)

    Taf: TAF LFPV 221400Z 2215/2315 02010G20KT 9999 BKN020 BECMG 2218/2220 34006KT CAVOK=

    Metar: METAR LFPV 221630Z AUTO 01008KT 350V050 9999 FEW029 SCT035 13/07 Q1033 NOSIG=

  • Payerne (LSMP)

    Taf: TAF LSMP 221625Z 2217/2323 06015KT CAVOK BECMG 2218/2220 06005KT=

    Metar: METAR LSMP 221620Z 07010KT CAVOK 13/02 Q1026 RMK BLU=

  • Amsterdam/Schipol (EHAM)

    Taf: TAF EHAM 221119Z 2212/2318 35012KT 9999 SCT040 BECMG 2214/2217 32005KT BECMG 2220/2223 27010KT BECMG 2304/2307 29017G27KT=

    Metar: METAR EHAM 221625Z 35005KT 330V030 9999 FEW042 12/04 Q1034 NOSIG=

  • Emmen (LSME)

    Taf: TAF LSME 221625Z 2217/2323 VRB04KT CAVOK BECMG 2218/2220 9999 SCT070 PROB40 2223/2309 4500 BR PROB30 2302/2308 2000 BCFG=

    Metar: METAR LSME 221620Z AUTO 07003KT 9999NDV NCD 11/04 Q1028 RMK=

  • Friedrichshafen (EDNY)

    Taf: TAF EDNY 221100Z 2212/2312 02006KT CAVOK BECMG 2218/2220 VRB03KT PROB30 TEMPO 2302/2307 2500 BCFG BECMG 2307/2309 24006KT=

    Metar: METAR EDNY 221620Z 01005KT CAVOK 12/04 Q1028=

  • Alpnach (LSMA)

    Taf: TAF LSMA 221625Z 2217/2323 VRB04KT CAVOK BECMG 2219/2221 9999 SCT070 PROB40 2301/2309 4500 BR PROB30 2303/2309 2000 BCFG=

    Metar: METAR LSMA 221620Z AUTO 22004KT 9000NDV NCD 10/05 Q1028 RMK=

  • Meiringen (LSMM)

    Taf: TAF LSMM 221625Z 2217/2323 06005KT CAVOK TEMPO 2217/2220 06015G25KT TEMPO 2222/2323 9999 SCT070 PROB30 2301/2308 4500 BR=

    Metar: METAR LSMM 221620Z 05009KT 330V110 CAVOK 10/05 Q1027 RMK BLU=

  • Nürnberg (EDDN)

    Taf: TAF EDDN 221100Z 2212/2312 32004KT CAVOK PROB30 TEMPO 2218/2304 BKN012 BECMG 2308/2310 26010KT PROB30 TEMPO 2310/2312 25015G25KT=

    Metar: METAR EDDN 221620Z 35006KT 9999 -RA BKN037 13/06 Q1028 NOSIG=

  • Rouen (LFOP)

    Taf: TAF LFOP 221100Z 2212/2312 02012KT 9999 BKN025 BECMG 2220/2223 VRB02KT PROB40 2223/2308 3000 BR BECMG 2308/2310 27012KT=

    Metar: METAR LFOP 221630Z AUTO 02009KT CAVOK 13/06 Q1034 NOSIG=

  • Evreux (LFOE)

    Taf: TAF LFOE 221400Z 2215/2315 01012KT 9999 SCT030 TEMPO 2303/2308 3000 BR BECMG 2308/2310 28010KT=

    Metar: METAR LFOE 221630Z AUTO 02007KT 340V040 CAVOK 13/06 Q1034 NOSIG=

  • Erfurt/Bindersleben (EDDE)

    Taf: TAF EDDE 221100Z 2212/2312 30010KT 9999 BKN025 TEMPO 2212/2215 2000 DZRA BKN009 BECMG 2216/2219 28005KT BECMG 2303/2306 24010KT BECMG 2306/2309 24015G30KT=

    Metar: METAR EDDE 221620Z 25004KT 9999 BKN036 08/07 Q1030 NOSIG=